Aviation Digital Data Service (ADDS)

Output produced by METARs form (1343 UTC 21 August 2019)
found at http://www.aviationweather.gov/metar/data/
 
Forecast for: PANC (ANCHORAGE INTL , AK, US)
Text: PANC 211125Z 2112/2218 24007KT P6SM FEW100
Forecast period: 1200 to 2100 UTC 21 August 2019
Forecast type: FROM: standard forecast or significant change
Winds: from the WSW (240 degrees) at 8 MPH (7 knots; 3.6 m/s)
Visibility: 6 or more miles 10+ km)
Ceiling: at least 12,000 feet AGL
Clouds: few clouds at 10000 feet AGL
Weather: no significant weather forecast for this period
Text: FM212100 30006KT P6SM FEW050 SCT200
Forecast period: 2100 UTC 21 August 2019 to 1800 UTC 22 August 2019
Forecast type: FROM: standard forecast or significant change
Winds: from the WNW (300 degrees) at 7 MPH (6 knots; 3.1 m/s)
Visibility: 6 or more miles 10+ km)
Ceiling: at least 12,000 feet AGL
Clouds: few clouds at 5000 feet AGL
scattered clouds at 20000 feet AGL
Weather: no significant weather forecast for this period